sensor_id;sensor_type;location;lat;lon;timestamp;pressure;altitude;pressure_sealevel;temperature;humidity
80640;BME280;69992;60.170;24.692;2023-08-31T00:01:22;100099.81;;;14.22;32.68
80640;BME280;69992;60.170;24.692;2023-08-31T00:03:47;100094.60;;;15.15;32.67
80640;BME280;69992;60.170;24.692;2023-08-31T00:06:13;100100.58;;;13.23;32.67
80640;BME280;69992;60.170;24.692;2023-08-31T00:08:38;100103.00;;;14.27;32.65
80640;BME280;69992;60.170;24.692;2023-08-31T00:11:04;100098.54;;;13.31;32.63
80640;BME280;69992;60.170;24.692;2023-08-31T00:13:29;100092.84;;;13.33;32.62
80640;BME280;69992;60.170;24.692;2023-08-31T00:15:55;100089.65;;;15.25;32.62
80640;BME280;69992;60.170;24.692;2023-08-31T00:18:20;100083.79;;;14.23;32.65
80640;BME280;69992;60.170;24.692;2023-08-31T00:20:45;100086.92;;;14.27;32.64
80640;BME280;69992;60.170;24.692;2023-08-31T00:23:10;100094.58;;;14.32;32.65
80640;BME280;69992;60.170;24.692;2023-08-31T00:25:36;100093.11;;;15.33;32.62
80640;BME280;69992;60.170;24.692;2023-08-31T00:28:01;100097.73;;;15.32;32.63
80640;BME280;69992;60.170;24.692;2023-08-31T00:30:27;100093.83;;;14.36;32.63
80640;BME280;69992;60.170;24.692;2023-08-31T00:32:52;100089.66;;;14.37;32.61
80640;BME280;69992;60.170;24.692;2023-08-31T00:35:18;100083.97;;;13.31;32.64
80640;BME280;69992;60.170;24.692;2023-08-31T00:37:43;100095.47;;;14.25;32.67
80640;BME280;69992;60.170;24.692;2023-08-31T00:40:10;100097.67;;;14.24;32.67
80640;BME280;69992;60.170;24.692;2023-08-31T00:42:34;100094.71;;;15.28;32.66
80640;BME280;69992;60.170;24.692;2023-08-31T00:45:00;100094.62;;;13.41;32.63
80640;BME280;69992;60.170;24.692;2023-08-31T00:47:25;100087.26;;;15.42;32.63
80640;BME280;69992;60.170;24.692;2023-08-31T00:49:51;100083.60;;;14.47;32.63
80640;BME280;69992;60.170;24.692;2023-08-31T00:52:16;100078.82;;;13.53;32.62
80640;BME280;69992;60.170;24.692;2023-08-31T00:54:41;100065.14;;;14.53;32.61
80640;BME280;69992;60.170;24.692;2023-08-31T00:57:06;100058.85;;;13.55;32.63
80640;BME280;69992;60.170;24.692;2023-08-31T00:59:32;100052.75;;;13.58;32.62
80640;BME280;69992;60.170;24.692;2023-08-31T01:04:32;100018.49;;;14.55;32.63
80640;BME280;69992;60.170;24.692;2023-08-31T01:06:54;100003.92;;;14.52;32.64
80640;BME280;69992;60.170;24.692;2023-08-31T01:09:20;99997.90;;;14.41;32.68
80640;BME280;69992;60.170;24.692;2023-08-31T01:11:48;99981.91;;;14.27;32.71
80640;BME280;69992;60.170;24.692;2023-08-31T01:14:11;99963.36;;;13.11;32.76
80640;BME280;69992;60.170;24.692;2023-08-31T01:16:33;99952.89;;;13.99;32.78
80640;BME280;69992;60.170;24.692;2023-08-31T01:18:56;99947.06;;;14.91;32.80
80640;BME280;69992;60.170;24.692;2023-08-31T01:21:27;99933.32;;;12.92;32.83
80640;BME280;69992;60.170;24.692;2023-08-31T01:23:51;99913.08;;;12.85;32.86
80640;BME280;69992;60.170;24.692;2023-08-31T01:26:12;99902.63;;;14.60;32.93
80640;BME280;69992;60.170;24.692;2023-08-31T01:28:38;99891.78;;;14.51;32.95
80640;BME280;69992;60.170;24.692;2023-08-31T01:31:04;99886.13;;;13.50;32.97
80640;BME280;69992;60.170;24.692;2023-08-31T01:33:28;99880.10;;;13.54;32.95
80640;BME280;69992;60.170;24.692;2023-08-31T01:35:54;99871.40;;;12.49;32.95
80640;BME280;69992;60.170;24.692;2023-08-31T01:38:22;99879.54;;;14.48;32.96
80640;BME280;69992;60.170;24.692;2023-08-31T01:40:47;99890.33;;;14.58;32.92
80640;BME280;69992;60.170;24.692;2023-08-31T01:43:11;99895.15;;;14.66;32.89
80640;BME280;69992;60.170;24.692;2023-08-31T01:45:36;99899.58;;;14.79;32.85
80640;BME280;69992;60.170;24.692;2023-08-31T01:48:01;99900.67;;;12.94;32.81
80640;BME280;69992;60.170;24.692;2023-08-31T01:50:26;99902.09;;;14.98;32.78
80640;BME280;69992;60.170;24.692;2023-08-31T01:52:52;99905.66;;;14.06;32.74
80640;BME280;69992;60.170;24.692;2023-08-31T01:55:17;99907.36;;;15.06;32.73
80640;BME280;69992;60.170;24.692;2023-08-31T01:57:42;99909.54;;;15.06;32.73
80640;BME280;69992;60.170;24.692;2023-08-31T02:00:10;99910.55;;;14.06;32.75
80640;BME280;69992;60.170;24.692;2023-08-31T02:02:33;99912.60;;;14.10;32.73
80640;BME280;69992;60.170;24.692;2023-08-31T02:04:59;99917.45;;;14.11;32.72
80640;BME280;69992;60.170;24.692;2023-08-31T02:07:24;99919.20;;;14.12;32.71
80640;BME280;69992;60.170;24.692;2023-08-31T02:09:50;99920.03;;;15.09;32.71
80640;BME280;69992;60.170;24.692;2023-08-31T02:12:15;99919.51;;;14.14;32.70
80640;BME280;69992;60.170;24.692;2023-08-31T02:14:40;99918.59;;;14.13;32.69
80640;BME280;69992;60.170;24.692;2023-08-31T02:17:06;99923.87;;;13.15;32.70
80640;BME280;69992;60.170;24.692;2023-08-31T02:19:32;99929.54;;;14.12;32.71
80640;BME280;69992;60.170;24.692;2023-08-31T02:21:58;99931.69;;;15.12;32.70
80640;BME280;69992;60.170;24.692;2023-08-31T02:24:22;99929.07;;;15.17;32.69
80640;BME280;69992;60.170;24.692;2023-08-31T02:26:48;99928.96;;;15.18;32.69
80640;BME280;69992;60.170;24.692;2023-08-31T02:29:13;99931.26;;;14.18;32.70
80640;BME280;69992;60.170;24.692;2023-08-31T02:31:39;99932.60;;;13.20;32.70
80640;BME280;69992;60.170;24.692;2023-08-31T02:34:04;99934.00;;;14.21;32.71
80640;BME280;69992;60.170;24.692;2023-08-31T02:36:30;99934.56;;;14.21;32.70
80640;BME280;69992;60.170;24.692;2023-08-31T02:38:56;99933.90;;;14.21;32.70
80640;BME280;69992;60.170;24.692;2023-08-31T02:41:21;99927.85;;;14.15;32.72
80640;BME280;69992;60.170;24.692;2023-08-31T02:43:46;99925.59;;;14.16;32.73
80640;BME280;69992;60.170;24.692;2023-08-31T02:46:12;99927.12;;;14.15;32.74
80640;BME280;69992;60.170;24.692;2023-08-31T02:48:38;99935.13;;;13.18;32.73
80640;BME280;69992;60.170;24.692;2023-08-31T02:51:03;99945.94;;;13.14;32.76
80640;BME280;69992;60.170;24.692;2023-08-31T02:53:29;99949.52;;;14.11;32.76
80640;BME280;69992;60.170;24.692;2023-08-31T02:55:54;99944.58;;;15.12;32.75
80640;BME280;69992;60.170;24.692;2023-08-31T02:58:19;99945.07;;;14.19;32.74
80640;BME280;69992;60.170;24.692;2023-08-31T03:00:45;99944.35;;;14.26;32.73
80640;BME280;69992;60.170;24.692;2023-08-31T03:03:10;99939.44;;;15.30;32.71
80640;BME280;69992;60.170;24.692;2023-08-31T03:05:35;99931.94;;;15.29;32.72
80640;BME280;69992;60.170;24.692;2023-08-31T03:08:02;99930.03;;;13.33;32.73
80640;BME280;69992;60.170;24.692;2023-08-31T03:10:26;99929.19;;;14.35;32.73
80640;BME280;69992;60.170;24.692;2023-08-31T03:12:52;99931.13;;;14.41;32.72
80640;BME280;69992;60.170;24.692;2023-08-31T03:15:17;99936.23;;;14.44;32.73
80640;BME280;69992;60.170;24.692;2023-08-31T03:17:43;99938.52;;;13.49;32.72
80640;BME280;69992;60.170;24.692;2023-08-31T03:20:08;99940.71;;;13.54;32.72
80640;BME280;69992;60.170;24.692;2023-08-31T03:22:34;99937.10;;;13.59;32.71
80640;BME280;69992;60.170;24.692;2023-08-31T03:24:59;99938.63;;;13.64;32.69
80640;BME280;69992;60.170;24.692;2023-08-31T03:27:25;99939.44;;;14.62;32.71
80640;BME280;69992;60.170;24.692;2023-08-31T03:29:50;99941.74;;;14.59;32.74
80640;BME280;69992;60.170;24.692;2023-08-31T03:32:15;99943.88;;;14.60;32.74
80640;BME280;69992;60.170;24.692;2023-08-31T03:34:41;99942.48;;;15.64;32.72
80640;BME280;69992;60.170;24.692;2023-08-31T03:37:06;99938.87;;;14.70;32.72
80640;BME280;69992;60.170;24.692;2023-08-31T03:39:32;99939.70;;;13.76;32.72
80640;BME280;69992;60.170;24.692;2023-08-31T03:41:59;99942.15;;;15.73;32.73
80640;BME280;69992;60.170;24.692;2023-08-31T03:44:23;99941.11;;;14.75;32.74
80640;BME280;69992;60.170;24.692;2023-08-31T03:46:48;99938.48;;;15.73;32.75
80640;BME280;69992;60.170;24.692;2023-08-31T03:49:14;99933.83;;;13.75;32.78
80640;BME280;69992;60.170;24.692;2023-08-31T03:51:39;99934.21;;;13.81;32.76
80640;BME280;69992;60.170;24.692;2023-08-31T03:54:05;99931.75;;;13.88;32.76
80640;BME280;69992;60.170;24.692;2023-08-31T03:56:30;99930.66;;;13.94;32.74
80640;BME280;69992;60.170;24.692;2023-08-31T03:58:55;99932.24;;;13.95;32.75
80640;BME280;69992;60.170;24.692;2023-08-31T04:01:21;99924.88;;;13.98;32.75
80640;BME280;69992;60.170;24.692;2023-08-31T04:03:46;99924.10;;;15.00;32.75
80640;BME280;69992;60.170;24.692;2023-08-31T04:06:12;99929.75;;;14.06;32.75
80640;BME280;69992;60.170;24.692;2023-08-31T04:08:37;99935.79;;;15.03;32.77
80640;BME280;69992;60.170;24.692;2023-08-31T04:11:03;99940.55;;;14.09;32.79
80640;BME280;69992;60.170;24.692;2023-08-31T04:13:28;99942.18;;;15.08;32.79
80640;BME280;69992;60.170;24.692;2023-08-31T04:15:54;99939.58;;;14.03;32.83
80640;BME280;69992;60.170;24.692;2023-08-31T04:18:20;99936.31;;;13.90;32.90
80640;BME280;69992;60.170;24.692;2023-08-31T04:20:49;99933.67;;;14.84;32.92
80640;BME280;69992;60.170;24.692;2023-08-31T04:23:11;99933.24;;;14.96;32.89
80640;BME280;69992;60.170;24.692;2023-08-31T04:25:36;99930.77;;;14.99;32.87
80640;BME280;69992;60.170;24.692;2023-08-31T04:28:02;99928.52;;;14.03;32.89
80640;BME280;69992;60.170;24.692;2023-08-31T04:30:28;99929.90;;;14.04;32.89
80640;BME280;69992;60.170;24.692;2023-08-31T04:32:53;99922.71;;;15.06;32.90
80640;BME280;69992;60.170;24.692;2023-08-31T04:35:18;99926.41;;;14.13;32.91
80640;BME280;69992;60.170;24.692;2023-08-31T04:37:43;99937.05;;;14.23;32.89
80640;BME280;69992;60.170;24.692;2023-08-31T04:40:09;99934.67;;;14.21;32.92
80640;BME280;69992;60.170;24.692;2023-08-31T04:42:34;99932.16;;;14.21;32.92
80640;BME280;69992;60.170;24.692;2023-08-31T04:45:00;99924.24;;;14.08;32.98
80640;BME280;69992;60.170;24.692;2023-08-31T04:47:25;99928.44;;;14.11;32.97
80640;BME280;69992;60.170;24.692;2023-08-31T04:49:50;99928.20;;;14.02;32.98
80640;BME280;69992;60.170;24.692;2023-08-31T04:52:16;99930.87;;;14.01;33.00
80640;BME280;69992;60.170;24.692;2023-08-31T04:54:42;99930.45;;;14.98;32.99
80640;BME280;69992;60.170;24.692;2023-08-31T04:57:07;99926.12;;;13.98;33.00
80640;BME280;69992;60.170;24.692;2023-08-31T04:59:33;99925.09;;;14.84;33.06
80640;BME280;69992;60.170;24.692;2023-08-31T05:01:58;99925.00;;;14.77;33.06
80640;BME280;69992;60.170;24.692;2023-08-31T05:04:23;99924.33;;;13.70;33.09
80640;BME280;69992;60.170;24.692;2023-08-31T05:06:49;99923.22;;;13.73;33.08
80640;BME280;69992;60.170;24.692;2023-08-31T05:09:15;99921.66;;;14.70;33.08
80640;BME280;69992;60.170;24.692;2023-08-31T05:11:40;99922.98;;;14.72;33.07
80640;BME280;69992;60.170;24.692;2023-08-31T05:14:05;99924.17;;;13.74;33.09
80640;BME280;69992;60.170;24.692;2023-08-31T05:16:31;99924.09;;;14.77;33.08
80640;BME280;69992;60.170;24.692;2023-08-31T05:18:56;99918.88;;;14.88;33.05
80640;BME280;69992;60.170;24.692;2023-08-31T05:21:21;99916.83;;;13.97;33.06
80640;BME280;69992;60.170;24.692;2023-08-31T05:23:47;99907.89;;;14.03;33.03
80640;BME280;69992;60.170;24.692;2023-08-31T05:26:13;99905.57;;;14.16;33.00
80640;BME280;69992;60.170;24.692;2023-08-31T05:28:38;99904.37;;;14.31;32.97
80640;BME280;69992;60.170;24.692;2023-08-31T05:31:03;99901.90;;;14.47;32.94
80640;BME280;69992;60.170;24.692;2023-08-31T05:33:29;99901.43;;;15.58;32.91
80640;BME280;69992;60.170;24.692;2023-08-31T05:35:54;99904.13;;;14.67;32.89
80640;BME280;69992;60.170;24.692;2023-08-31T05:38:19;99900.75;;;14.69;32.90
80640;BME280;69992;60.170;24.692;2023-08-31T05:40:45;99900.96;;;14.70;32.90
80640;BME280;69992;60.170;24.692;2023-08-31T05:43:10;99908.33;;;13.82;32.89
80640;BME280;69992;60.170;24.692;2023-08-31T05:45:35;99914.34;;;15.87;32.87
80640;BME280;69992;60.170;24.692;2023-08-31T05:48:01;99913.93;;;12.99;32.87
80640;BME280;69992;60.170;24.692;2023-08-31T05:50:26;99915.87;;;14.98;32.87
80640;BME280;69992;60.170;24.692;2023-08-31T05:52:52;99919.05;;;14.92;32.90
80640;BME280;69992;60.170;24.692;2023-08-31T05:55:17;99916.40;;;13.98;32.88
80640;BME280;69992;60.170;24.692;2023-08-31T05:57:43;99915.33;;;14.95;32.86
80640;BME280;69992;60.170;24.692;2023-08-31T06:00:09;99914.40;;;14.88;32.91
80640;BME280;69992;60.170;24.692;2023-08-31T06:02:34;99912.26;;;15.78;32.94
80640;BME280;69992;60.170;24.692;2023-08-31T06:04:59;99914.55;;;14.69;32.98
80640;BME280;69992;60.170;24.692;2023-08-31T06:07:25;99917.01;;;14.70;32.99
80640;BME280;69992;60.170;24.692;2023-08-31T06:09:50;99914.88;;;14.70;32.99
80640;BME280;69992;60.170;24.692;2023-08-31T06:12:15;99912.88;;;14.77;32.99
80640;BME280;69992;60.170;24.692;2023-08-31T06:14:41;99909.81;;;14.83;32.97
80640;BME280;69992;60.170;24.692;2023-08-31T06:17:06;99909.78;;;13.95;32.97
80640;BME280;69992;60.170;24.692;2023-08-31T06:19:32;99912.16;;;15.07;32.94
80640;BME280;69992;60.170;24.692;2023-08-31T06:21:58;99914.01;;;16.09;32.97
80640;BME280;69992;60.170;24.692;2023-08-31T06:24:23;99920.09;;;15.20;32.98
80640;BME280;69992;60.170;24.692;2023-08-31T06:26:48;99920.01;;;15.18;32.98
80640;BME280;69992;60.170;24.692;2023-08-31T06:29:14;99913.75;;;15.05;33.04
80640;BME280;69992;60.170;24.692;2023-08-31T06:31:39;99914.14;;;13.95;33.09
80640;BME280;69992;60.170;24.692;2023-08-31T06:34:04;99913.77;;;14.81;33.13
80640;BME280;69992;60.170;24.692;2023-08-31T06:36:29;99912.84;;;13.82;33.13
80640;BME280;69992;60.170;24.692;2023-08-31T06:38:55;99912.79;;;14.69;33.18
80640;BME280;69992;60.170;24.692;2023-08-31T06:41:21;99912.47;;;13.60;33.19
80640;BME280;69992;60.170;24.692;2023-08-31T06:43:46;99912.61;;;13.57;33.19
80640;BME280;69992;60.170;24.692;2023-08-31T06:46:12;99912.49;;;14.64;33.16
80640;BME280;69992;60.170;24.692;2023-08-31T06:48:37;99912.29;;;14.70;33.18
80640;BME280;69992;60.170;24.692;2023-08-31T06:51:02;99913.79;;;14.56;33.22
80640;BME280;69992;60.170;24.692;2023-08-31T06:53:28;99912.75;;;14.50;33.24
80640;BME280;69992;60.170;24.692;2023-08-31T06:55:53;99905.95;;;14.48;33.28
80640;BME280;69992;60.170;24.692;2023-08-31T06:58:19;99901.15;;;14.48;33.26
80640;BME280;69992;60.170;24.692;2023-08-31T07:00:45;99899.13;;;13.55;33.22
80640;BME280;69992;60.170;24.692;2023-08-31T07:03:10;99899.76;;;14.57;33.22
80640;BME280;69992;60.170;24.692;2023-08-31T07:05:41;99901.50;;;14.53;33.22
80640;BME280;69992;60.170;24.692;2023-08-31T07:08:01;99899.84;;;14.53;33.22
80640;BME280;69992;60.170;24.692;2023-08-31T07:10:26;99896.73;;;14.51;33.23
80640;BME280;69992;60.170;24.692;2023-08-31T07:12:51;99893.29;;;15.58;33.20
80640;BME280;69992;60.170;24.692;2023-08-31T07:15:17;99893.61;;;16.65;33.17
80640;BME280;69992;60.170;24.692;2023-08-31T07:17:42;99897.01;;;14.74;33.17
80640;BME280;69992;60.170;24.692;2023-08-31T07:20:09;99895.02;;;14.82;33.14
80640;BME280;69992;60.170;24.692;2023-08-31T07:22:34;99894.15;;;14.83;33.15
80640;BME280;69992;60.170;24.692;2023-08-31T07:24:59;99894.44;;;14.72;33.18
80640;BME280;69992;60.170;24.692;2023-08-31T07:27:24;99894.07;;;14.72;33.19
80640;BME280;69992;60.170;24.692;2023-08-31T07:29:50;99896.35;;;14.76;33.18
80640;BME280;69992;60.170;24.692;2023-08-31T07:32:15;99893.54;;;14.77;33.18
80640;BME280;69992;60.170;24.692;2023-08-31T07:34:41;99891.05;;;14.74;33.18
80640;BME280;69992;60.170;24.692;2023-08-31T07:37:06;99887.43;;;14.76;33.18
80640;BME280;69992;60.170;24.692;2023-08-31T07:39:31;99888.23;;;14.75;33.18
80640;BME280;69992;60.170;24.692;2023-08-31T07:41:57;99885.86;;;14.72;33.20
80640;BME280;69992;60.170;24.692;2023-08-31T07:44:23;99884.35;;;14.81;33.19
80640;BME280;69992;60.170;24.692;2023-08-31T07:46:47;99881.99;;;14.85;33.18
80640;BME280;69992;60.170;24.692;2023-08-31T07:49:13;99880.93;;;14.94;33.18
80640;BME280;69992;60.170;24.692;2023-08-31T07:51:38;99884.11;;;15.02;33.16
80640;BME280;69992;60.170;24.692;2023-08-31T07:54:04;99881.78;;;15.06;33.15
80640;BME280;69992;60.170;24.692;2023-08-31T07:56:29;99881.43;;;15.09;33.13
80640;BME280;69992;60.170;24.692;2023-08-31T07:58:54;99877.25;;;14.98;33.18
80640;BME280;69992;60.170;24.692;2023-08-31T08:01:19;99874.39;;;14.87;33.21
80640;BME280;69992;60.170;24.692;2023-08-31T08:03:45;99875.88;;;14.81;33.25
80640;BME280;69992;60.170;24.692;2023-08-31T08:06:10;99877.93;;;14.77;33.26
80640;BME280;69992;60.170;24.692;2023-08-31T08:08:35;99876.08;;;14.81;33.29
80640;BME280;69992;60.170;24.692;2023-08-31T08:11:01;99874.95;;;13.86;33.25
80640;BME280;69992;60.170;24.692;2023-08-31T08:13:26;99873.46;;;14.89;33.25
80640;BME280;69992;60.170;24.692;2023-08-31T08:15:52;99872.15;;;14.91;33.24
80640;BME280;69992;60.170;24.692;2023-08-31T08:18:17;99870.02;;;14.94;33.28
80640;BME280;69992;60.170;24.692;2023-08-31T08:20:42;99868.35;;;14.93;33.26
80640;BME280;69992;60.170;24.692;2023-08-31T08:23:08;99865.11;;;14.89;33.29
80640;BME280;69992;60.170;24.692;2023-08-31T08:25:33;99867.98;;;15.79;33.32
80640;BME280;69992;60.170;24.692;2023-08-31T08:27:59;99862.92;;;14.91;33.29
80640;BME280;69992;60.170;24.692;2023-08-31T08:30:24;99865.43;;;15.10;33.25
80640;BME280;69992;60.170;24.692;2023-08-31T08:32:49;99867.04;;;15.22;33.22
80640;BME280;69992;60.170;24.692;2023-08-31T08:35:15;99865.53;;;14.34;33.19
80640;BME280;69992;60.170;24.692;2023-08-31T08:37:41;99863.48;;;15.30;33.20
80640;BME280;69992;60.170;24.692;2023-08-31T08:40:07;99862.85;;;14.26;33.23
80640;BME280;69992;60.170;24.692;2023-08-31T08:42:33;99861.48;;;15.24;33.22
80640;BME280;69992;60.170;24.692;2023-08-31T08:44:58;99859.63;;;15.20;33.22
80640;BME280;69992;60.170;24.692;2023-08-31T08:47:23;99859.86;;;15.11;33.28
80640;BME280;69992;60.170;24.692;2023-08-31T08:49:48;99858.76;;;15.07;33.31
80640;BME280;69992;60.170;24.692;2023-08-31T08:52:15;99857.49;;;15.03;33.30
80640;BME280;69992;60.170;24.692;2023-08-31T08:54:39;99857.47;;;15.10;33.32
80640;BME280;69992;60.170;24.692;2023-08-31T08:57:04;99856.49;;;14.11;33.29
80640;BME280;69992;60.170;24.692;2023-08-31T08:59:31;99857.38;;;15.22;33.24
80640;BME280;69992;60.170;24.692;2023-08-31T09:01:55;99855.05;;;15.20;33.25
80640;BME280;69992;60.170;24.692;2023-08-31T09:04:20;99854.49;;;16.18;33.26
80640;BME280;69992;60.170;24.692;2023-08-31T09:06:45;99855.70;;;15.19;33.29
80640;BME280;69992;60.170;24.692;2023-08-31T09:09:11;99856.86;;;15.26;33.27
80640;BME280;69992;60.170;24.692;2023-08-31T09:11:36;99855.93;;;15.33;33.25
80640;BME280;69992;60.170;24.692;2023-08-31T09:14:14;99857.14;;;13.41;33.26
80640;BME280;69992;60.170;24.692;2023-08-31T09:16:28;99854.95;;;15.47;33.22
80640;BME280;69992;60.170;24.692;2023-08-31T09:18:52;99859.47;;;14.54;33.20
80640;BME280;69992;60.170;24.692;2023-08-31T09:21:18;99856.44;;;15.55;33.20
80640;BME280;69992;60.170;24.692;2023-08-31T09:23:47;99854.24;;;15.58;33.20
80640;BME280;69992;60.170;24.692;2023-08-31T09:26:09;99854.99;;;14.61;33.20
80640;BME280;69992;60.170;24.692;2023-08-31T09:28:34;99853.81;;;15.54;33.21
80640;BME280;69992;60.170;24.692;2023-08-31T09:31:05;99854.56;;;14.52;33.23
80640;BME280;69992;60.170;24.692;2023-08-31T09:33:25;99853.23;;;15.47;33.24
80640;BME280;69992;60.170;24.692;2023-08-31T09:35:53;99851.78;;;14.44;33.27
80640;BME280;69992;60.170;24.692;2023-08-31T09:38:16;99850.49;;;15.38;33.27
80640;BME280;69992;60.170;24.692;2023-08-31T09:40:41;99848.53;;;15.24;33.34
80640;BME280;69992;60.170;24.692;2023-08-31T09:43:07;99848.04;;;13.25;33.35
80640;BME280;69992;60.170;24.692;2023-08-31T09:45:33;99850.31;;;15.22;33.33
80640;BME280;69992;60.170;24.692;2023-08-31T09:47:59;99845.54;;;15.12;33.38
80640;BME280;69992;60.170;24.692;2023-08-31T09:50:23;99848.38;;;15.06;33.38
80640;BME280;69992;60.170;24.692;2023-08-31T09:52:50;99842.70;;;15.02;33.41
80640;BME280;69992;60.170;24.692;2023-08-31T09:55:15;99842.51;;;15.07;33.38
80640;BME280;69992;60.170;24.692;2023-08-31T09:57:40;99842.58;;;15.09;33.38
80640;BME280;69992;60.170;24.692;2023-08-31T10:00:06;99842.71;;;15.10;33.38
80640;BME280;69992;60.170;24.692;2023-08-31T10:02:31;99838.22;;;15.01;33.39
80640;BME280;69992;60.170;24.692;2023-08-31T10:04:56;99841.43;;;14.93;33.41
80640;BME280;69992;60.170;24.692;2023-08-31T10:07:21;99840.49;;;14.75;33.47
80640;BME280;69992;60.170;24.692;2023-08-31T10:09:46;99841.36;;;14.65;33.51
80640;BME280;69992;60.170;24.692;2023-08-31T10:12:12;99837.20;;;13.75;33.46
80640;BME280;69992;60.170;24.692;2023-08-31T10:14:37;99836.90;;;14.80;33.47
80640;BME280;69992;60.170;24.692;2023-08-31T10:17:03;99833.66;;;13.85;33.44
80640;BME280;69992;60.170;24.692;2023-08-31T10:19:28;99832.93;;;15.92;33.41
80640;BME280;69992;60.170;24.692;2023-08-31T10:21:53;99827.56;;;15.01;33.39
80640;BME280;69992;60.170;24.692;2023-08-31T10:26:44;99827.07;;;15.12;33.36
80640;BME280;69992;60.170;24.692;2023-08-31T10:31:35;99826.24;;;15.12;33.38
80640;BME280;69992;60.170;24.692;2023-08-31T10:34:02;99822.88;;;13.17;33.38
80640;BME280;69992;60.170;24.692;2023-08-31T10:36:37;99826.33;;;15.20;33.39
80640;BME280;69992;60.170;24.692;2023-08-31T10:38:59;99825.92;;;15.28;33.40
80640;BME280;69992;60.170;24.692;2023-08-31T10:41:19;99825.86;;;14.35;33.39
80640;BME280;69992;60.170;24.692;2023-08-31T10:43:46;99825.24;;;15.42;33.38
80640;BME280;69992;60.170;24.692;2023-08-31T10:50:59;99819.43;;;15.51;33.42
80640;BME280;69992;60.170;24.692;2023-08-31T10:53:28;99817.59;;;15.56;33.44
80640;BME280;69992;60.170;24.692;2023-08-31T10:55:50;99820.59;;;15.62;33.43
80640;BME280;69992;60.170;24.692;2023-08-31T10:58:14;99821.22;;;14.68;33.45
80640;BME280;69992;60.170;24.692;2023-08-31T11:00:51;99819.70;;;15.73;33.45
80640;BME280;69992;60.170;24.692;2023-08-31T11:03:05;99822.44;;;14.94;33.39
80640;BME280;69992;60.170;24.692;2023-08-31T11:05:31;99822.54;;;16.07;33.37
80640;BME280;69992;60.170;24.692;2023-08-31T11:07:56;99820.61;;;15.28;33.36
80640;BME280;69992;60.170;24.692;2023-08-31T11:10:22;99817.26;;;16.33;33.37
80640;BME280;69992;60.170;24.692;2023-08-31T11:12:48;99821.56;;;15.43;33.36
80640;BME280;69992;60.170;24.692;2023-08-31T11:15:13;99823.31;;;15.51;33.34
80640;BME280;69992;60.170;24.692;2023-08-31T11:17:39;99820.45;;;16.47;33.35
80640;BME280;69992;60.170;24.692;2023-08-31T11:20:03;99821.47;;;14.51;33.36
80640;BME280;69992;60.170;24.692;2023-08-31T11:22:28;99821.24;;;15.54;33.41
80640;BME280;69992;60.170;24.692;2023-08-31T11:24:54;99821.43;;;14.58;33.38
80640;BME280;69992;60.170;24.692;2023-08-31T11:27:20;99822.48;;;14.68;33.35
80640;BME280;69992;60.170;24.692;2023-08-31T11:29:45;99823.38;;;15.67;33.37
80640;BME280;69992;60.170;24.692;2023-08-31T11:32:10;99822.07;;;15.75;33.38
80640;BME280;69992;60.170;24.692;2023-08-31T11:34:40;99822.91;;;14.89;33.35
80640;BME280;69992;60.170;24.692;2023-08-31T11:37:01;99819.27;;;15.22;33.29
80640;BME280;69992;60.170;24.692;2023-08-31T11:39:26;99820.79;;;15.62;33.24
80640;BME280;69992;60.170;24.692;2023-08-31T11:41:52;99827.30;;;16.04;33.16
80640;BME280;69992;60.170;24.692;2023-08-31T11:44:17;99828.57;;;15.47;33.12
80640;BME280;69992;60.170;24.692;2023-08-31T11:46:44;99829.63;;;16.89;33.06
80640;BME280;69992;60.170;24.692;2023-08-31T11:49:08;99830.96;;;16.14;33.06
80640;BME280;69992;60.170;24.692;2023-08-31T11:51:34;99832.11;;;16.39;33.04
80640;BME280;69992;60.170;24.692;2023-08-31T11:53:59;99834.89;;;16.59;33.02
80640;BME280;69992;60.170;24.692;2023-08-31T11:56:24;99830.90;;;16.79;33.01
80640;BME280;69992;60.170;24.692;2023-08-31T11:58:51;99830.92;;;16.98;33.02
80640;BME280;69992;60.170;24.692;2023-08-31T12:01:19;99834.38;;;16.27;33.01
80640;BME280;69992;60.170;24.692;2023-08-31T12:03:44;99832.28;;;17.46;32.99
80640;BME280;69992;60.170;24.692;2023-08-31T12:06:05;99833.34;;;16.61;33.02
80640;BME280;69992;60.170;24.692;2023-08-31T12:08:31;99835.62;;;16.90;33.02
80640;BME280;69992;60.170;24.692;2023-08-31T12:10:56;99840.14;;;17.23;32.99
80640;BME280;69992;60.170;24.692;2023-08-31T12:13:26;99843.14;;;18.82;32.94
80640;BME280;69992;60.170;24.692;2023-08-31T12:15:47;99844.70;;;19.21;32.91
80640;BME280;69992;60.170;24.692;2023-08-31T12:18:13;99853.56;;;18.22;32.93
80640;BME280;69992;60.170;24.692;2023-08-31T12:20:43;99859.70;;;17.96;32.98
80640;BME280;69992;60.170;24.692;2023-08-31T12:23:03;99860.87;;;16.65;33.05
80640;BME280;69992;60.170;24.692;2023-08-31T12:25:28;99866.85;;;17.36;33.11
80640;BME280;69992;60.170;24.692;2023-08-31T12:27:54;99872.33;;;17.93;33.20
80640;BME280;69992;60.170;24.692;2023-08-31T12:30:20;99874.68;;;17.62;33.28
80640;BME280;69992;60.170;24.692;2023-08-31T12:32:45;99882.10;;;16.39;33.31
80640;BME280;69992;60.170;24.692;2023-08-31T12:35:10;99890.51;;;17.05;33.37
80640;BME280;69992;60.170;24.692;2023-08-31T12:37:36;99894.97;;;16.77;33.43
80640;BME280;69992;60.170;24.692;2023-08-31T12:40:01;99899.18;;;16.50;33.49
80640;BME280;69992;60.170;24.692;2023-08-31T12:42:26;99901.64;;;16.18;33.53
80640;BME280;69992;60.170;24.692;2023-08-31T12:44:52;99904.46;;;15.92;33.56
80640;BME280;69992;60.170;24.692;2023-08-31T12:47:17;99905.86;;;15.87;33.54
80640;BME280;69992;60.170;24.692;2023-08-31T12:49:43;99913.48;;;16.78;33.55
80640;BME280;69992;60.170;24.692;2023-08-31T12:52:08;99917.54;;;15.65;33.58